SWA3520 KMTJ-KDEN
Flight info
| Callsign | SWA3520 |
|---|---|
| Flight time | 0h 42m |
| Altitude | 27000 |
| Route | HBU3 HBU BBRRO TBARR4 |
| Aircraft | B738/M-SADE2E3GIJ4RWZ/LB1D1 |
Departure
| Time | 2026-04-23 00:03 |
|---|---|
| Airport | Montrose Regional Airport (KMTJ) |
Arrival
| Time | 2026-04-23 00:45 |
|---|---|
| Airport | Denver International Airport (KDEN) |
| Time | Latitude | Longitude | Altitude | Speed | Heading |
|---|---|---|---|---|---|
| 2026-04-22 23:38 | 38.50185 | -107.89992 | 5735 ft | 0 kts | 229° |
| 2026-04-22 23:55 | 38.50190 | -107.89985 | 5731 ft | 2 kts | 229° |
| 2026-04-22 23:55 | 38.50201 | -107.89969 | 5730 ft | 2 kts | 229° |
| 2026-04-22 23:55 | 38.50212 | -107.89954 | 5726 ft | 2 kts | 230° |
| 2026-04-22 23:56 | 38.50220 | -107.89936 | 5728 ft | 2 kts | 266° |
| 2026-04-22 23:56 | 38.50218 | -107.89922 | 5727 ft | 1 kts | 317° |
| 2026-04-22 23:56 | 38.50216 | -107.89919 | 5728 ft | 0 kts | 320° |
| 2026-04-22 23:58 | 38.50216 | -107.89928 | 5729 ft | 0 kts | 254° |
| 2026-04-22 23:58 | 38.50197 | -107.89921 | 5729 ft | 6 kts | 134° |
| 2026-04-22 23:58 | 38.50224 | -107.89848 | 5733 ft | 15 kts | 50° |
| 2026-04-22 23:59 | 38.50323 | -107.89701 | 5733 ft | 27 kts | 50° |
| 2026-04-22 23:59 | 38.50463 | -107.89492 | 5741 ft | 34 kts | 49° |
| 2026-04-22 23:59 | 38.50694 | -107.89403 | 5738 ft | 39 kts | 360° |
| 2026-04-22 23:59 | 38.50970 | -107.89409 | 5737 ft | 40 kts | 359° |
| 2026-04-23 00:00 | 38.51525 | -107.89411 | 5727 ft | 40 kts | 360° |
| 2026-04-23 00:00 | 38.51803 | -107.89414 | 5724 ft | 40 kts | 359° |
| 2026-04-23 00:00 | 38.52082 | -107.89419 | 5719 ft | 40 kts | 360° |
| 2026-04-23 00:01 | 38.52362 | -107.89413 | 5719 ft | 41 kts | 359° |
| 2026-04-23 00:01 | 38.52644 | -107.89416 | 5715 ft | 41 kts | 360° |
| 2026-04-23 00:01 | 38.52866 | -107.89416 | 5711 ft | 22 kts | 360° |
| 2026-04-23 00:01 | 38.52969 | -107.89327 | 5709 ft | 20 kts | 93° |
| 2026-04-23 00:02 | 38.52866 | -107.89274 | 5711 ft | 31 kts | 180° |
| 2026-04-23 00:02 | 38.52373 | -107.89273 | 5719 ft | 108 kts | 180° |
| 2026-04-23 00:02 | 38.51403 | -107.89273 | 5728 ft | 168 kts | 181° |
| 2026-04-23 00:02 | 38.50101 | -107.89280 | 6010 ft | 198 kts | 188° |
| 2026-04-23 00:03 | 38.48742 | -107.89300 | 7082 ft | 189 kts | 188° |
| 2026-04-23 00:03 | 38.47525 | -107.89295 | 8298 ft | 168 kts | 188° |
| 2026-04-23 00:03 | 38.46397 | -107.89235 | 9452 ft | 162 kts | 178° |
| 2026-04-23 00:03 | 38.45339 | -107.88378 | 9889 ft | 216 kts | 137° |
| 2026-04-23 00:04 | 38.44677 | -107.86283 | 9339 ft | 300 kts | 99° |
| 2026-04-23 00:04 | 38.44657 | -107.83502 | 9774 ft | 322 kts | 94° |
| 2026-04-23 00:04 | 38.44795 | -107.80493 | 9722 ft | 362 kts | 80° |
| 2026-04-23 00:04 | 38.45597 | -107.77444 | 9767 ft | 359 kts | 73° |
| 2026-04-23 00:05 | 38.45980 | -107.74385 | 9766 ft | 341 kts | 94° |
| 2026-04-23 00:05 | 38.45912 | -107.71423 | 9774 ft | 329 kts | 96° |
| 2026-04-23 00:05 | 38.45826 | -107.68511 | 9768 ft | 329 kts | 96° |
| 2026-04-23 00:05 | 38.45755 | -107.65624 | 10066 ft | 331 kts | 96° |
| 2026-04-23 00:06 | 38.45700 | -107.62688 | 11014 ft | 329 kts | 95° |
| 2026-04-23 00:06 | 38.45662 | -107.59755 | 11975 ft | 335 kts | 94° |
| 2026-04-23 00:06 | 38.45629 | -107.56768 | 12943 ft | 339 kts | 95° |
| 2026-04-23 00:06 | 38.45604 | -107.53767 | 13936 ft | 342 kts | 94° |
| 2026-04-23 00:07 | 38.45582 | -107.50701 | 14713 ft | 349 kts | 94° |
| 2026-04-23 00:07 | 38.45566 | -107.47587 | 15533 ft | 353 kts | 94° |
| 2026-04-23 00:07 | 38.45537 | -107.44442 | 16365 ft | 357 kts | 94° |
| 2026-04-23 00:07 | 38.45510 | -107.41251 | 17137 ft | 363 kts | 94° |
| 2026-04-23 00:08 | 38.45484 | -107.37932 | 17389 ft | 386 kts | 94° |
| 2026-04-23 00:08 | 38.45456 | -107.34411 | 17575 ft | 408 kts | 93° |
| 2026-04-23 00:08 | 38.45427 | -107.30699 | 17805 ft | 427 kts | 93° |
| 2026-04-23 00:08 | 38.45399 | -107.26865 | 18296 ft | 437 kts | 93° |
| 2026-04-23 00:09 | 38.45371 | -107.22964 | 18883 ft | 441 kts | 93° |
| 2026-04-23 00:09 | 38.45340 | -107.19047 | 19472 ft | 444 kts | 93° |
| 2026-04-23 00:09 | 38.45307 | -107.15101 | 20128 ft | 447 kts | 93° |
| 2026-04-23 00:09 | 38.45270 | -107.11112 | 20667 ft | 452 kts | 93° |
| 2026-04-23 00:10 | 38.45232 | -107.07075 | 21189 ft | 459 kts | 94° |
| 2026-04-23 00:10 | 38.45362 | -107.02979 | 21705 ft | 467 kts | 81° |
| 2026-04-23 00:10 | 38.46251 | -106.98993 | 22371 ft | 469 kts | 72° |
| 2026-04-23 00:10 | 38.47301 | -106.95049 | 22949 ft | 472 kts | 71° |
| 2026-04-23 00:11 | 38.48382 | -106.91048 | 23401 ft | 479 kts | 71° |
| 2026-04-23 00:11 | 38.49458 | -106.87012 | 23698 ft | 484 kts | 71° |
| 2026-04-23 00:11 | 38.50523 | -106.82930 | 24118 ft | 487 kts | 72° |
| 2026-04-23 00:11 | 38.51582 | -106.78785 | 24531 ft | 492 kts | 72° |
| 2026-04-23 00:12 | 38.52632 | -106.74619 | 24964 ft | 495 kts | 72° |
| 2026-04-23 00:12 | 38.53683 | -106.70426 | 25401 ft | 498 kts | 72° |
| 2026-04-23 00:12 | 38.54740 | -106.66197 | 25772 ft | 503 kts | 73° |
| 2026-04-23 00:12 | 38.55803 | -106.61930 | 26244 ft | 504 kts | 73° |
| 2026-04-23 00:13 | 38.56865 | -106.57669 | 26746 ft | 504 kts | 73° |
| 2026-04-23 00:13 | 38.57937 | -106.53363 | 26788 ft | 514 kts | 73° |
| 2026-04-23 00:13 | 38.59026 | -106.48982 | 26800 ft | 520 kts | 73° |
| 2026-04-23 00:13 | 38.60119 | -106.44584 | 26796 ft | 518 kts | 73° |
| 2026-04-23 00:14 | 38.61203 | -106.40207 | 26795 ft | 513 kts | 73° |
| 2026-04-23 00:14 | 38.62263 | -106.35925 | 26819 ft | 512 kts | 73° |
| 2026-04-23 00:14 | 38.63339 | -106.31582 | 26792 ft | 512 kts | 73° |
| 2026-04-23 00:14 | 38.64406 | -106.27246 | 26814 ft | 510 kts | 73° |
| 2026-04-23 00:15 | 38.65700 | -106.23041 | 26827 ft | 510 kts | 60° |
| 2026-04-23 00:15 | 38.67797 | -106.19418 | 26937 ft | 504 kts | 46° |
| 2026-04-23 00:15 | 38.70111 | -106.16045 | 26929 ft | 504 kts | 46° |
| 2026-04-23 00:15 | 38.72409 | -106.12659 | 26967 ft | 504 kts | 47° |
| 2026-04-23 00:16 | 38.74687 | -106.09241 | 26947 ft | 505 kts | 47° |
| 2026-04-23 00:16 | 38.76947 | -106.05798 | 26954 ft | 505 kts | 48° |
| 2026-04-23 00:16 | 38.79197 | -106.02338 | 26922 ft | 506 kts | 48° |
| 2026-04-23 00:16 | 38.81330 | -105.99047 | 26909 ft | 506 kts | 48° |
| 2026-04-23 00:17 | 38.83578 | -105.95579 | 26880 ft | 506 kts | 48° |
| 2026-04-23 00:17 | 38.85830 | -105.92107 | 26652 ft | 505 kts | 48° |
| 2026-04-23 00:17 | 38.88076 | -105.88643 | 26665 ft | 505 kts | 48° |
| 2026-04-23 00:17 | 38.90320 | -105.85176 | 26672 ft | 505 kts | 48° |
| 2026-04-23 00:18 | 38.92559 | -105.81707 | 26655 ft | 504 kts | 48° |
| 2026-04-23 00:18 | 38.94792 | -105.78240 | 26667 ft | 503 kts | 48° |
| 2026-04-23 00:18 | 38.97016 | -105.74781 | 26444 ft | 499 kts | 49° |
| 2026-04-23 00:18 | 38.99210 | -105.71366 | 26009 ft | 493 kts | 49° |
| 2026-04-23 00:19 | 39.01368 | -105.68004 | 25503 ft | 488 kts | 49° |
| 2026-04-23 00:19 | 39.03515 | -105.64656 | 24971 ft | 484 kts | 49° |
| 2026-04-23 00:19 | 39.05651 | -105.61322 | 24395 ft | 480 kts | 49° |
| 2026-04-23 00:19 | 39.07768 | -105.58016 | 23854 ft | 477 kts | 49° |
| 2026-04-23 00:20 | 39.09869 | -105.54730 | 23297 ft | 474 kts | 49° |
| 2026-04-23 00:20 | 39.11958 | -105.51463 | 22679 ft | 471 kts | 49° |
| 2026-04-23 00:20 | 39.14024 | -105.48227 | 22283 ft | 462 kts | 49° |
| 2026-04-23 00:20 | 39.16019 | -105.45097 | 22378 ft | 444 kts | 49° |
| 2026-04-23 00:21 | 39.17977 | -105.42027 | 22434 ft | 448 kts | 49° |
| 2026-04-23 00:21 | 39.19967 | -105.38868 | 22440 ft | 461 kts | 50° |
| 2026-04-23 00:21 | 39.22012 | -105.35625 | 22431 ft | 469 kts | 49° |
| 2026-04-23 00:21 | 39.24068 | -105.32385 | 22446 ft | 464 kts | 49° |
| 2026-04-23 00:22 | 39.26107 | -105.29178 | 22439 ft | 461 kts | 49° |
| 2026-04-23 00:22 | 39.28132 | -105.25999 | 22223 ft | 458 kts | 49° |
| 2026-04-23 00:22 | 39.30145 | -105.22846 | 22048 ft | 450 kts | 49° |
| 2026-04-23 00:22 | 39.32131 | -105.19740 | 22122 ft | 450 kts | 49° |
| 2026-04-23 00:23 | 39.34112 | -105.16643 | 21954 ft | 443 kts | 49° |
| 2026-04-23 00:23 | 39.36060 | -105.13595 | 21388 ft | 443 kts | 49° |
| 2026-04-23 00:23 | 39.38024 | -105.10517 | 20701 ft | 444 kts | 49° |
| 2026-04-23 00:23 | 39.39990 | -105.07449 | 20088 ft | 443 kts | 49° |
| 2026-04-23 00:24 | 39.41937 | -105.04445 | 19564 ft | 440 kts | 49° |
| 2026-04-23 00:24 | 39.43896 | -105.01426 | 19063 ft | 436 kts | 49° |
| 2026-04-23 00:24 | 39.45752 | -104.98565 | 18737 ft | 433 kts | 49° |
| 2026-04-23 00:24 | 39.47684 | -104.95587 | 18260 ft | 431 kts | 49° |
| 2026-04-23 00:25 | 39.49606 | -104.92632 | 17765 ft | 428 kts | 47° |
| 2026-04-23 00:25 | 39.51840 | -104.90138 | 17241 ft | 419 kts | 25° |
| 2026-04-23 00:25 | 39.54519 | -104.88951 | 16931 ft | 400 kts | 4° |
| 2026-04-23 00:25 | 39.57247 | -104.88697 | 16491 ft | 391 kts | 358° |
| 2026-04-23 00:26 | 39.59966 | -104.88426 | 15939 ft | 392 kts | 0° |
| 2026-04-23 00:26 | 39.62674 | -104.88062 | 15351 ft | 392 kts | 2° |
| 2026-04-23 00:26 | 39.65376 | -104.87669 | 14916 ft | 388 kts | 1° |
| 2026-04-23 00:26 | 39.68024 | -104.87294 | 14725 ft | 376 kts | 1° |
| 2026-04-23 00:27 | 39.70578 | -104.86936 | 14645 ft | 363 kts | 1° |
| 2026-04-23 00:27 | 39.73045 | -104.86590 | 14562 ft | 350 kts | 1° |
| 2026-04-23 00:27 | 39.75426 | -104.86256 | 14482 ft | 339 kts | 1° |
| 2026-04-23 00:27 | 39.77738 | -104.85933 | 14326 ft | 331 kts | 1° |
| 2026-04-23 00:28 | 39.80016 | -104.85617 | 14007 ft | 329 kts | 1° |
| 2026-04-23 00:28 | 39.82291 | -104.85301 | 13685 ft | 328 kts | 1° |
| 2026-04-23 00:28 | 39.84558 | -104.84984 | 13392 ft | 327 kts | 1° |
| 2026-04-23 00:28 | 39.86050 | -104.84774 | 13174 ft | 326 kts | 1° |
| 2026-04-23 00:29 | 39.88302 | -104.84457 | 12842 ft | 325 kts | 1° |
| 2026-04-23 00:29 | 39.90513 | -104.84137 | 12756 ft | 315 kts | 1° |
| 2026-04-23 00:29 | 39.92652 | -104.83732 | 12668 ft | 306 kts | 4° |
| 2026-04-23 00:29 | 39.94684 | -104.83301 | 12580 ft | 284 kts | 3° |
| 2026-04-23 00:30 | 39.96558 | -104.82899 | 12419 ft | 263 kts | 5° |
| 2026-04-23 00:30 | 39.98348 | -104.82526 | 11895 ft | 260 kts | 4° |
| 2026-04-23 00:30 | 40.00116 | -104.82163 | 11378 ft | 258 kts | 4° |
| 2026-04-23 00:30 | 40.01875 | -104.81804 | 10906 ft | 254 kts | 4° |
| 2026-04-23 00:31 | 40.03612 | -104.81451 | 10356 ft | 252 kts | 4° |
| 2026-04-23 00:31 | 40.05341 | -104.81101 | 10080 ft | 253 kts | 4° |
| 2026-04-23 00:31 | 40.07091 | -104.80748 | 9966 ft | 254 kts | 4° |
| 2026-04-23 00:31 | 40.08838 | -104.80395 | 9811 ft | 256 kts | 4° |
| 2026-04-23 00:32 | 40.10590 | -104.80040 | 9805 ft | 251 kts | 4° |
| 2026-04-23 00:32 | 40.12253 | -104.79698 | 9786 ft | 231 kts | 4° |
| 2026-04-23 00:32 | 40.13770 | -104.79387 | 9762 ft | 212 kts | 3° |
| 2026-04-23 00:32 | 40.15209 | -104.79096 | 9797 ft | 206 kts | 2° |
| 2026-04-23 00:33 | 40.16637 | -104.78810 | 9788 ft | 207 kts | 3° |
| 2026-04-23 00:33 | 40.18033 | -104.78527 | 9801 ft | 200 kts | 1° |
| 2026-04-23 00:33 | 40.19366 | -104.78252 | 9843 ft | 189 kts | 1° |
| 2026-04-23 00:33 | 40.20672 | -104.77992 | 9773 ft | 189 kts | 0° |
| 2026-04-23 00:34 | 40.21955 | -104.77731 | 9783 ft | 186 kts | 359° |
| 2026-04-23 00:34 | 40.23248 | -104.77472 | 9806 ft | 189 kts | 360° |
| 2026-04-23 00:34 | 40.24537 | -104.77100 | 9781 ft | 196 kts | 19° |
| 2026-04-23 00:34 | 40.25453 | -104.75782 | 9800 ft | 202 kts | 72° |
| 2026-04-23 00:35 | 40.25402 | -104.74007 | 9807 ft | 199 kts | 121° |
| 2026-04-23 00:35 | 40.24803 | -104.72414 | 9814 ft | 198 kts | 121° |
| 2026-04-23 00:35 | 40.24129 | -104.70883 | 9776 ft | 189 kts | 142° |
| 2026-04-23 00:35 | 40.23079 | -104.70033 | 9822 ft | 177 kts | 161° |
| 2026-04-23 00:36 | 40.21985 | -104.69250 | 9821 ft | 180 kts | 160° |
| 2026-04-23 00:36 | 40.20870 | -104.68501 | 9799 ft | 177 kts | 171° |
| 2026-04-23 00:36 | 40.19694 | -104.68315 | 9809 ft | 167 kts | 189° |
| 2026-04-23 00:36 | 40.18533 | -104.68330 | 9783 ft | 167 kts | 188° |
| 2026-04-23 00:37 | 40.17374 | -104.68352 | 9790 ft | 166 kts | 189° |
| 2026-04-23 00:37 | 40.16220 | -104.68370 | 9774 ft | 166 kts | 188° |
| 2026-04-23 00:37 | 40.15061 | -104.68385 | 9606 ft | 167 kts | 187° |
| 2026-04-23 00:37 | 40.13908 | -104.68398 | 9438 ft | 164 kts | 187° |
| 2026-04-23 00:38 | 40.12770 | -104.68411 | 9264 ft | 162 kts | 187° |
| 2026-04-23 00:38 | 40.11653 | -104.68424 | 9088 ft | 160 kts | 188° |
| 2026-04-23 00:38 | 40.10563 | -104.68436 | 8964 ft | 155 kts | 188° |
| 2026-04-23 00:38 | 40.09493 | -104.68449 | 8752 ft | 151 kts | 188° |
| 2026-04-23 00:39 | 40.08453 | -104.68461 | 8587 ft | 148 kts | 188° |
| 2026-04-23 00:39 | 40.07425 | -104.68474 | 8543 ft | 147 kts | 189° |
| 2026-04-23 00:39 | 40.06403 | -104.68486 | 8395 ft | 146 kts | 189° |
| 2026-04-23 00:39 | 40.05385 | -104.68499 | 8241 ft | 147 kts | 188° |
| 2026-04-23 00:40 | 40.04368 | -104.68509 | 8123 ft | 146 kts | 188° |
| 2026-04-23 00:40 | 40.03321 | -104.68523 | 7983 ft | 151 kts | 189° |
| 2026-04-23 00:40 | 40.02279 | -104.68534 | 7800 ft | 148 kts | 189° |
| 2026-04-23 00:40 | 40.01260 | -104.68546 | 7595 ft | 147 kts | 188° |
| 2026-04-23 00:41 | 40.00221 | -104.68562 | 7420 ft | 152 kts | 188° |
| 2026-04-23 00:41 | 39.99173 | -104.68571 | 7246 ft | 148 kts | 189° |
| 2026-04-23 00:41 | 39.98152 | -104.68582 | 7037 ft | 145 kts | 188° |
| 2026-04-23 00:41 | 39.97150 | -104.68594 | 6855 ft | 145 kts | 188° |
| 2026-04-23 00:42 | 39.96170 | -104.68611 | 6667 ft | 138 kts | 190° |
| 2026-04-23 00:42 | 39.95221 | -104.68616 | 6503 ft | 136 kts | 190° |
| 2026-04-23 00:42 | 39.94261 | -104.68629 | 6353 ft | 142 kts | 191° |
| 2026-04-23 00:42 | 39.93273 | -104.68648 | 6159 ft | 141 kts | 188° |
| 2026-04-23 00:43 | 39.92295 | -104.68651 | 5929 ft | 141 kts | 189° |
| 2026-04-23 00:43 | 39.91297 | -104.68658 | 5738 ft | 145 kts | 192° |
| 2026-04-23 00:43 | 39.90289 | -104.68674 | 5531 ft | 143 kts | 191° |
| 2026-04-23 00:43 | 39.89297 | -104.68692 | 5374 ft | 140 kts | 191° |
| 2026-04-23 00:44 | 39.88427 | -104.68778 | 5364 ft | 95 kts | 179° |
| 2026-04-23 00:44 | 39.87872 | -104.68727 | 5381 ft | 72 kts | 175° |
| 2026-04-23 00:44 | 39.87406 | -104.68712 | 5377 ft | 62 kts | 180° |
| 2026-04-23 00:44 | 39.87003 | -104.68720 | 5384 ft | 54 kts | 181° |
| 2026-04-23 00:45 | 39.86655 | -104.68727 | 5394 ft | 46 kts | 181° |
| 2026-04-23 00:45 | 39.86524 | -104.68726 | 5394 ft | 14 kts | 176° |
| 2026-04-23 00:45 | 39.86429 | -104.68628 | 5391 ft | 24 kts | 97° |
| 2026-04-23 00:45 | 39.86427 | -104.68359 | 5393 ft | 36 kts | 91° |
| 2026-04-23 00:46 | 39.86430 | -104.68017 | 5383 ft | 39 kts | 89° |
| 2026-04-23 00:46 | 39.86415 | -104.67798 | 5377 ft | 0 kts | 90° |
| 2026-04-23 00:46 | 39.86415 | -104.67780 | 5376 ft | 9 kts | 90° |
| 2026-04-23 00:46 | 39.86415 | -104.67728 | 5376 ft | 5 kts | 90° |
| 2026-04-23 00:47 | 39.86403 | -104.67651 | 5370 ft | 7 kts | 145° |
| 2026-04-23 00:47 | 39.86360 | -104.67638 | 5374 ft | 6 kts | 177° |
| 2026-04-23 00:47 | 39.86359 | -104.67637 | 5374 ft | 1 kts | 177° |
| 2026-04-23 00:47 | 39.86355 | -104.67637 | 5374 ft | 0 kts | 177° |